Data for 02/18/2008

Time Sea-Level Adjusted Pressure Absolute Pressure Temperature Relative Humidity Dew Point   
(mb) (inHg) (mb) (inHg) (C) (F) (%) (C) (F)
00:05 1020 30.12 849 25.07 -2 28.4 58 -9.1 15.6
00:10 1020 30.12 849 25.07 -2.7 27.1 60 -9.5 15
00:15 1020 30.12 849 25.07 -3.1 26.5 60 -9.8 14.4
00:20 1020 30.12 849 25.07 -3.2 26.2 61 -9.8 14.3
00:25 1020 30.12 849 25.07 -3.4 25.9 61 -9.8 14.4
00:30 1020 30.12 849 25.07 -3.8 25.3 62 -10 13.9
00:35 1020 30.12 849 25.07 -3.5 25.8 61 -10 14
00:40 1020 30.12 849 25.07 -3.4 25.9 61 -9.9 14.2
00:45 1020 30.12 849 25.07 -3.3 26.1 60 -9.9 14.2
00:50 1020 30.12 849 25.07 -3.8 25.2 61 -10.1 13.7
00:55 1020 30.12 849 25.07 -3.8 25.2 60 -10.5 13.1
01:00 1020 30.12 849 25.07 -4.1 24.6 62 -10.3 13.4
01:05 1020 30.12 849 25.07 -4.4 24.1 62 -10.7 12.8
01:10 1020 30.12 849 25.07 -4.1 24.6 63 -10.2 13.6
01:15 1020 30.12 849 25.07 -4.4 24.2 63 -10.4 13.2
01:20 1020 30.12 849 25.07 -4.4 24.1 63 -10.5 13.2
01:25 1020 30.12 849 25.07 -4.4 24.1 63 -10.4 13.2
01:30 1020 30.12 849 25.07 -4.6 23.7 64 -10.3 13.4
01:35 1020 30.12 849 25.07 -4.3 24.2 63 -10.4 13.4
01:40 1020 30.12 849 25.07 -4.2 24.4 63 -10.3 13.4
01:45 1020 30.12 849 25.07 -4.2 24.4 63 -10.2 13.6
01:50 1020 30.12 849 25.07 -4.3 24.2 64 -10.2 13.7
01:55 1020 30.12 849 25.07 -4.3 24.2 63 -10.3 13.4
02:00 1020 30.12 850 25.1 -4.3 24.3 62 -10.5 13.1
02:05 1020 30.12 850 25.1 -4.1 24.6 61 -10.6 13
02:10 1020 30.12 850 25.1 -4.1 24.7 61 -10.6 13
02:15 1020 30.12 850 25.1 -4.4 24.1 62 -10.7 12.7
02:20 1020 30.12 850 25.1 -4.8 23.3 63 -10.8 12.5
02:25 1020 30.12 850 25.1 -5 23 63 -11 12.2
02:30 1020 30.12 850 25.1 -5 22.9 63 -11 12.3
02:35 1020 30.12 850 25.1 -5 23 64 -10.7 12.7
02:40 1020 30.12 850 25.1 -4.9 23.1 64 -10.7 12.7
02:45 1020 30.12 850 25.1 -5.1 22.9 63 -11.1 12
02:50 1020 30.12 850 25.1 -5.1 22.8 63 -11.1 12
02:55 1020 30.12 849 25.07 -5.3 22.5 63 -11.2 11.9
03:00 1020 30.12 849 25.07 -5.4 22.2 64 -11.3 11.7
03:05 1020 30.12 849 25.07 -5.4 22.3 63 -11.3 11.6
03:10 1020 30.12 849 25.07 -5.3 22.5 64 -11.1 12
03:15 1020 30.12 850 25.1 -5.5 22.2 64 -11.2 11.9
03:20 1020 30.12 849 25.07 -5.6 21.9 66 -11 12.2
03:25 1020 30.12 849 25.07 -5.7 21.7 67 -11 12.3
03:30 1020 30.12 849 25.07 -5.7 21.8 67 -11 12.3
03:35 1020 30.12 849 25.07 -5.4 22.2 65 -10.9 12.3
03:40 1020 30.12 849 25.07 -5.6 21.9 66 -11 12.2
03:45 1020 30.12 849 25.07 -5.7 21.7 66 -11 12.1
03:50 1020 30.12 849 25.07 -5.8 21.5 67 -11.1 12
03:55 1020 30.12 849 25.07 -6 21.3 67 -11.1 12
04:00 1020 30.12 849 25.07 -6 21.3 67 -11.1 12
04:05 1020 30.12 850 25.1 -5.8 21.5 67 -11 12.1
04:10 1020 30.12 850 25.1 -5.6 21.9 65 -11.1 12
04:15 1020 30.12 849 25.07 -5.2 22.6 66 -10.7 12.8
04:20 1020 30.12 849 25.07 -5 23 64 -10.7 12.7
04:25 1020 30.12 850 25.1 -5.4 22.3 65 -11 12.1
04:30 1020 30.12 850 25.1 -5.5 22.1 65 -11.1 12
04:35 1020 30.12 850 25.1 -5.4 22.2 65 -11 12.1
04:40 1020 30.12 850 25.1 -5.6 21.8 67 -10.9 12.4
04:45 1020 30.12 850 25.1 -5.9 21.4 67 -11.1 12
04:50 1020 30.12 850 25.1 -6.1 21 69 -10.8 12.5
04:55 1020 30.12 850 25.1 -6.1 21.1 68 -11.1 12
05:00 1020 30.12 850 25.1 -6.1 21 69 -11 12.2
05:05 1020 30.12 850 25.1 -6.3 20.7 68 -11.2 11.8
05:10 1021 30.15 850 25.1 -6.4 20.5 68 -11.3 11.7
05:15 1021 30.15 850 25.1 -6.5 20.4 71 -10.9 12.3
05:20 1021 30.15 850 25.1 -6.4 20.4 68 -11.3 11.6
05:25 1021 30.15 850 25.1 -6.6 20.2 72 -10.8 12.5
05:30 1021 30.15 850 25.1 -6.7 20 69 -11.5 11.3
05:35 1021 30.15 850 25.1 -6.6 20.2 70 -11.2 11.9
05:40 1021 30.15 850 25.1 -6.9 19.6 71 -11.4 11.5
05:45 1021 30.15 850 25.1 -6.9 19.6 73 -10.9 12.4
05:50 1021 30.15 850 25.1 -6.7 19.9 69 -11.4 11.5
05:55 1021 30.15 850 25.1 -6.4 20.5 69 -11.2 11.9
06:00 1021 30.15 850 25.1 -6.4 20.5 70 -11 12.1
06:05 1021 30.15 850 25.1 -6.6 20.2 70 -11.2 11.8
06:10 1021 30.15 850 25.1 -6.6 20.1 69 -11.4 11.5
06:15 1021 30.15 850 25.1 -6.4 20.5 68 -11.3 11.6
06:20 1021 30.15 850 25.1 -6.5 20.4 70 -11.1 12.1
06:25 1021 30.15 850 25.1 -6.4 20.4 71 -10.9 12.3
06:30 1021 30.15 850 25.1 -6.3 20.7 69 -11.1 12
06:35 1021 30.15 850 25.1 -6.6 20.1 70 -11.3 11.7
06:40 1021 30.15 850 25.1 -6.7 19.9 70 -11.3 11.7
06:45 1021 30.15 850 25.1 -6.9 19.5 74 -10.8 12.5
06:50 1021 30.15 850 25.1 -7 19.4 71 -11.4 11.5
06:55 1021 30.15 850 25.1 -6.8 19.8 70 -11.3 11.6
07:00 1021 30.15 850 25.1 -6.7 19.9 71 -11.2 11.9
07:05 1021 30.15 850 25.1 -6.7 20 70 -11.2 11.9
07:10 1021 30.15 850 25.1 -6.6 20.1 71 -11.1 12
07:15 1021 30.15 850 25.1 -6.4 20.4 71 -10.9 12.4
07:20 1021 30.15 850 25.1 -6.6 20.1 70 -11.3 11.7
07:25 1021 30.15 850 25.1 -7 19.4 71 -11.4 11.5
07:30 1021 30.15 850 25.1 -6.7 20 71 -11.1 12
07:35 1021 30.15 850 25.1 -6.6 20.1 70 -11.2 11.8
07:40 1021 30.15 850 25.1 -6.7 19.9 70 -11.2 11.8
07:45 1021 30.15 850 25.1 -6.5 20.4 69 -11.3 11.7
07:50 1021 30.15 850 25.1 -6.4 20.5 69 -11.1 12.1
07:55 1021 30.15 850 25.1 -6.3 20.6 72 -10.6 12.9
08:00 1021 30.15 851 25.13 -6.1 21 68 -11.1 12
08:05 1021 30.15 851 25.13 -6.3 20.7 69 -11.2 11.9
08:10 1021 30.15 851 25.13 -6.3 20.6 69 -11.1 12
08:15 1021 30.15 851 25.13 -6.2 20.8 68 -11.2 11.9
08:20 1021 30.15 851 25.13 -6 21.2 67 -11.2 11.9
08:25 1021 30.15 850 25.1 -6 21.2 67 -11.1 12
08:30 1021 30.15 850 25.1 -5.9 21.4 67 -11.1 12.1
08:35 1021 30.15 850 25.1 -5.7 21.8 66 -11 12.1
08:40 1021 30.15 850 25.1 -5.3 22.5 65 -10.9 12.3
08:45 1021 30.15 850 25.1 -4.9 23.2 63 -10.8 12.6
08:50 1021 30.15 850 25.1 -4.8 23.4 63 -10.7 12.8
08:55 1021 30.15 850 25.1 -4.4 24.2 61 -10.7 12.7
09:00 1021 30.15 850 25.1 -4.1 24.5 62 -10.4 13.2
09:05 1021 30.15 850 25.1 -4.3 24.2 63 -10.4 13.2
09:10 1021 30.15 850 25.1 -3.9 25 60 -10.5 13
09:15 1021 30.15 850 25.1 -3.4 25.9 58 -10.6 13
09:20 1021 30.15 850 25.1 -3 26.6 57 -10.3 13.5
09:25 1021 30.15 850 25.1 -3 26.6 58 -10.2 13.7
09:30 1021 30.15 850 25.1 -2.8 27 55 -10.5 13
09:35 1021 30.15 850 25.1 -2.7 27.2 56 -10.4 13.3
09:40 1021 30.15 850 25.1 -2.6 27.3 55 -10.5 13.1
09:45 1021 30.15 850 25.1 -2 28.4 52 -10.7 12.8
09:50 1021 30.15 850 25.1 -1.6 29.2 51 -10.3 13.4
09:55 1021 30.15 850 25.1 -1.3 29.6 50 -10.5 13.1
10:00 1021 30.15 850 25.1 -0.9 30.3 49 -10.4 13.3
10:05 1021 30.15 850 25.1 -0.5 31.1 48 -10.2 13.6
10:10 1021 30.15 850 25.1 -0.4 31.2 46 -10.6 12.9
10:15 1021 30.15 850 25.1 -0.4 31.2 48 -10.1 13.9
10:20 1021 30.15 850 25.1 0 32 46 -10.4 13.3
10:25 1021 30.15 850 25.1 0.2 32.3 44 -10.6 13
10:30 1021 30.15 850 25.1 0.5 32.9 45 -10.1 13.9
10:35 1021 30.15 850 25.1 0.2 32.4 50 -9 15.8
10:40 1021 30.15 850 25.1 0.1 32.2 49 -9.5 14.9
10:45 1021 30.15 850 25.1 -0.1 31.8 50 -9.3 15.3
10:50 1021 30.15 850 25.1 0.2 32.4 46 -10.2 13.6
10:55 1021 30.15 850 25.1 0.5 33 46 -9.7 14.5
11:00 1021 30.15 850 25.1 1.4 34.5 42 -10 13.9
11:05 1021 30.15 850 25.1 1.6 34.9 44 -9.3 15.3
11:10 1021 30.15 850 25.1 1.4 34.5 44 -9.7 14.5
11:15 1021 30.15 850 25.1 0.6 33.2 46 -9.7 14.5
11:20 1021 30.15 850 25.1 0.1 32.2 48 -9.8 14.4
11:25 1021 30.15 850 25.1 0.7 33.2 45 -9.9 14.2
11:30 1021 30.15 850 25.1 1.1 34 46 -9.1 15.6
11:35 1021 30.15 850 25.1 1.6 34.8 44 -9.3 15.3
11:40 1021 30.15 850 25.1 2.2 36 42 -9.5 15
11:45 1021 30.15 850 25.1 2.7 36.9 40 -9.5 15
11:50 1021 30.15 850 25.1 3.1 37.6 40 -9.4 15.1
11:55 1021 30.15 850 25.1 3 37.3 41 -9 15.8
12:00 1021 30.15 850 25.1 2.7 36.9 43 -8.8 16.2
12:05 1021 30.15 850 25.1 2.8 37 40 -9.6 14.7
12:10 1020 30.12 850 25.1 3.7 38.6 38 -9.3 15.2
12:15 1020 30.12 850 25.1 4.1 39.4 36 -9.6 14.6
12:20 1020 30.12 850 25.1 3.9 38.9 41 -8.2 17.2
12:25 1020 30.12 850 25.1 3.2 37.7 42 -8.5 16.7
12:30 1020 30.12 850 25.1 2.4 36.2 45 -8.5 16.7
12:35 1020 30.12 850 25.1 1.8 35.2 45 -8.8 16.1
12:40 1020 30.12 850 25.1 2.3 36.1 42 -9.3 15.2
12:45 1020 30.12 850 25.1 2.3 36.2 43 -9.1 15.7
12:50 1020 30.12 850 25.1 3.5 38.3 40 -9 15.9
12:55 1020 30.12 849 25.07 3.5 38.3 47 -6.9 19.6
13:00 1020 30.12 849 25.07 3.3 37.9 45 -7.6 18.4
13:05 1020 30.12 849 25.07 3.6 38.5 44 -7.6 18.3
13:10 1020 30.12 849 25.07 3.7 38.7 43 -7.7 18.2
13:15 1020 30.12 849 25.07 3.6 38.5 43 -7.7 18.1
13:20 1020 30.12 849 25.07 3 37.5 49 -6.8 19.8
13:25 1020 30.12 849 25.07 2.5 36.6 47 -7.6 18.4
13:30 1020 30.12 849 25.07 3.1 37.6 44 -8 17.7
13:35 1020 30.12 849 25.07 3.2 37.7 43 -8.3 17
13:40 1020 30.12 849 25.07 3.2 37.8 44 -7.8 17.9
13:45 1020 30.12 849 25.07 2.8 37.1 47 -7.3 18.9
13:50 1020 30.12 849 25.07 2.2 36 46 -8.3 17
13:55 1020 30.12 849 25.07 2.6 36.7 45 -8.2 17.2
14:00 1020 30.12 849 25.07 3.8 38.8 39 -8.8 16.1
14:05 1020 30.12 849 25.07 4.1 39.3 39 -8.7 16.4
14:10 1020 30.12 849 25.07 4.3 39.7 38 -8.8 16.1
14:15 1020 30.12 849 25.07 3.8 38.8 41 -8.4 16.9
14:20 1020 30.12 849 25.07 4.3 39.7 37 -9.2 15.5
14:25 1020 30.12 849 25.07 4.6 40.3 39 -8.3 17.1
14:30 1020 30.12 849 25.07 4.6 40.2 38 -8.7 16.4
14:35 1020 30.12 849 25.07 4.9 40.8 36 -9 15.8
14:40 1020 30.12 849 25.07 4.9 40.9 38 -8.4 16.9
14:45 1019 30.09 849 25.07 4.5 40.2 35 -9.5 14.9
14:50 1019 30.09 849 25.07 4.4 39.9 36 -9.5 14.9
14:55 1019 30.09 849 25.07 4.7 40.4 35 -9.6 14.7
15:00 1019 30.09 849 25.07 4.4 40 38 -8.6 16.5
15:05 1019 30.09 849 25.07 4.9 40.8 37 -8.7 16.4
15:10 1019 30.09 849 25.07 5.1 41.2 35 -9.1 15.6
15:15 1019 30.09 849 25.07 5.3 41.5 35 -9 15.8
15:20 1019 30.09 848 25.04 4.4 39.8 39 -8.5 16.7
15:25 1019 30.09 848 25.04 4.2 39.5 37 -9.1 15.6
15:30 1019 30.09 848 25.04 4.5 40 37 -8.8 16.1
15:35 1019 30.09 848 25.04 4.6 40.2 37 -9.1 15.7
15:40 1019 30.09 848 25.04 4.7 40.4 36 -9.3 15.2
15:45 1019 30.09 848 25.04 5.2 41.3 35 -9.1 15.7
15:50 1019 30.09 848 25.04 5 41 36 -8.9 16
15:55 1019 30.09 848 25.04 3.9 39.1 40 -8.4 16.9
16:00 1019 30.09 848 25.04 3.4 38.1 41 -8.8 16.2
16:05 1019 30.09 848 25.04 3.4 38.2 41 -8.7 16.3
16:10 1019 30.09 848 25.04 4.1 39.3 38 -9 15.9
16:15 1019 30.09 848 25.04 4 39.3 39 -8.7 16.4
16:20 1019 30.09 848 25.04 3.5 38.3 40 -8.7 16.3
16:25 1019 30.09 848 25.04 3.3 37.9 40 -9.1 15.6
16:30 1019 30.09 848 25.04 3.5 38.3 38 -9.5 14.9
16:35 1019 30.09 848 25.04 4 39.1 37 -9.3 15.3
16:40 1019 30.09 848 25.04 4.3 39.8 37 -9.2 15.5
16:45 1019 30.09 848 25.04 4.6 40.3 35 -9.5 14.9
16:50 1019 30.09 848 25.04 4.2 39.5 38 -9 15.7
16:55 1019 30.09 848 25.04 4.2 39.5 36 -9.6 14.7
17:00 1019 30.09 848 25.04 3.9 39.1 38 -9.2 15.5
17:05 1019 30.09 848 25.04 3.4 38.1 38 -9.6 14.7
17:10 1019 30.09 848 25.04 3 37.4 40 -9.2 15.4
17:15 1019 30.09 848 25.04 2.2 35.9 39 -10.4 13.2
17:20 1019 30.09 848 25.04 1.9 35.4 41 -10.1 13.9
17:25 1019 30.09 848 25.04 1.8 35.2 40 -10.3 13.5
17:30 1019 30.09 848 25.04 1.4 34.6 42 -10 13.9
17:35 1018 30.06 848 25.04 1.3 34.4 45 -9.4 15.1
17:40 1018 30.06 848 25.04 1.4 34.5 42 -10.2 13.6
17:45 1018 30.06 848 25.04 1.4 34.5 43 -10 14.1
17:50 1018 30.06 848 25.04 1.1 34.1 44 -9.9 14.2
17:55 1018 30.06 848 25.04 0.7 33.3 45 -10 14
18:00 1018 30.06 848 25.04 0.7 33.3 46 -9.5 14.8
18:05 1018 30.06 848 25.04 0.5 33 47 -9.5 14.8
18:10 1018 30.06 848 25.04 0.2 32.4 50 -9 15.8
18:15 1018 30.06 848 25.04 -0.1 31.9 50 -9.4 15.1
18:20 1018 30.06 848 25.04 -0.1 31.8 49 -9.7 14.6
18:25 1019 30.09 848 25.04 -0.2 31.6 50 -9.4 15.1
18:30 1018 30.06 848 25.04 -0.4 31.3 51 -9.4 15
18:35 1018 30.06 848 25.04 -0.5 31.2 51 -9.3 15.2
18:40 1019 30.09 848 25.04 -0.4 31.3 51 -9.3 15.3
18:45 1019 30.09 848 25.04 -0.4 31.2 52 -9.1 15.6
18:50 1019 30.09 848 25.04 -0.6 30.9 53 -9 15.8
18:55 1019 30.09 848 25.04 -0.6 30.9 54 -8.9 16
19:00 1019 30.09 848 25.04 -0.6 30.9 53 -9.1 15.7
19:05 1019 30.09 848 25.04 -0.3 31.4 51 -9.3 15.3
19:10 1019 30.09 848 25.04 -0.4 31.2 52 -9.1 15.7
19:15 1019 30.09 848 25.04 -0.4 31.4 52 -9.1 15.6
19:20 1019 30.09 848 25.04 -0.5 31.2 54 -8.8 16.2
19:25 1019 30.09 848 25.04 -0.8 30.6 55 -8.6 16.5
19:30 1019 30.09 848 25.04 -1 30.2 57 -8.5 16.7
19:35 1019 30.09 848 25.04 -0.5 31.1 54 -8.8 16.2
19:40 1019 30.09 848 25.04 -0.4 31.3 54 -8.5 16.8
19:45 1019 30.09 848 25.04 -0.2 31.7 52 -8.9 16
19:50 1019 30.09 848 25.04 -0.5 31.1 54 -8.6 16.5
19:55 1019 30.09 848 25.04 -0.8 30.6 56 -8.6 16.5
20:00 1019 30.09 848 25.04 -1.3 29.6 58 -8.5 16.7
20:05 1019 30.09 848 25.04 -1.4 29.5 58 -8.6 16.6
20:10 1019 30.09 848 25.04 -1.3 29.7 59 -8.4 17
20:15 1019 30.09 848 25.04 -1.3 29.7 59 -8.3 17
20:20 1019 30.09 848 25.04 -1.4 29.5 62 -7.8 17.9
20:25 1019 30.09 848 25.04 -1.7 29 63 -7.8 18
20:30 1019 30.09 848 25.04 -1.4 29.4 62 -7.7 18.1
20:35 1018 30.06 848 25.04 -1.3 29.8 62 -7.5 18.5
20:40 1019 30.09 848 25.04 -1.3 29.7 63 -7.5 18.5
20:45 1018 30.06 848 25.04 -1.6 29 64 -7.5 18.5
20:50 1018 30.06 848 25.04 -2 28.4 65 -7.7 18.1
20:55 1018 30.06 848 25.04 -2.1 28.3 62 -8.5 16.8
21:00 1018 30.06 848 25.04 -1.6 29 59 -8.6 16.6
21:05 1018 30.06 848 25.04 -1.5 29.3 59 -8.5 16.7
21:10 1018 30.06 848 25.04 -1.6 29.1 57 -9 15.7
21:15 1018 30.06 848 25.04 -1.6 29.1 55 -9.5 14.9
21:20 1018 30.06 848 25.04 -1.1 30.1 55 -9 15.8
21:25 1018 30.06 847 25.01 -0.7 30.7 56 -8.4 16.9
21:30 1018 30.06 848 25.04 -0.7 30.7 58 -7.9 17.8
21:35 1018 30.06 848 25.04 -0.8 30.5 58 -8.1 17.3
21:40 1018 30.06 848 25.04 -0.8 30.5 58 -8.1 17.4
21:45 1018 30.06 847 25.01 -0.9 30.3 55 -8.8 16.1
21:50 1018 30.06 847 25.01 -1 30.2 57 -8.5 16.7
21:55 1018 30.06 847 25.01 -1.4 29.5 55 -9.2 15.4
22:00 1018 30.06 847 25.01 -1.4 29.4 56 -9.2 15.5
22:05 1018 30.06 847 25.01 -1.4 29.4 55 -9.3 15.2
22:10 1018 30.06 847 25.01 -1 30.1 55 -9.1 15.7
22:15 1018 30.06 847 25.01 -0.5 31.1 53 -9 15.8
22:20 1018 30.06 847 25.01 -0.4 31.4 55 -8.3 17
22:25 1018 30.06 847 25.01 -0.3 31.4 56 -8.1 17.5
22:30 1018 30.06 847 25.01 -0.4 31.3 58 -7.8 18
22:35 1018 30.06 847 25.01 -0.7 30.8 59 -7.8 17.9
22:40 1018 30.06 847 25.01 -0.8 30.5 60 -7.7 18.1
22:45 1018 30.06 847 25.01 -0.9 30.4 60 -7.6 18.3
22:50 1018 30.06 847 25.01 -0.9 30.3 60 -7.7 18.2
22:55 1018 30.06 847 25.01 -1.1 30 61 -7.6 18.3
23:00 1018 30.06 847 25.01 -1.3 29.6 62 -7.8 18
23:05 1018 30.06 847 25.01 -1.6 29.2 64 -7.5 18.5
23:10 1018 30.06 847 25.01 -2 28.4 64 -7.9 17.7
23:15 1018 30.06 847 25.01 -2 28.4 64 -8 17.6
23:20 1018 30.06 847 25.01 -2.1 28.2 64 -8 17.6
23:25 1018 30.06 847 25.01 -2.2 28 65 -8 17.6
23:30 1018 30.06 847 25.01 -2.3 27.9 64 -8.2 17.2
23:35 1018 30.06 847 25.01 -2.3 27.8 64 -8.3 17.1
23:40 1018 30.06 847 25.01 -2.5 27.6 65 -8.1 17.4
23:45 1018 30.06 847 25.01 -2.4 27.7 66 -7.9 17.7
23:50 1018 30.06 847 25.01 -2.1 28.2 64 -8 17.6
23:55 1018 30.06 847 25.01 -2 28.4 64 -8 17.6
24:00 1018 30.06 847 25.01 -2 28.4 63 -8.2 17.2